PAUNPADG

Guest
Details From PAUN - Unalakleet
To PADG - RED DOG
Flight Number -
Tags generated
Created
Modified
Stats Distance 260 nm / 482 km
Max Altitude 18,000 ft / 5,486 m
Waypoints 6
Social Downloads 1
Likes 0
Share VATSIM

Download

Looking for another format? Having issues loading an existing format? Contact us
Advertisement - Login to hide

Notes

Basic altitude profile: - Ascent Rate: 2500ft/min - Ascent Speed: 250kts - Cruise Altitude: 35000ft - Cruise Speed: 420kts - Descent Rate: 1500ft/min - Descent Speed: 250kts Options: - Use NATs: yes - Use PACOTS: yes - Use low airways: yes - Use high airways: yes

Route

PAUN JNR B3 HHM PADG

ID Type Via Altitude Latitude Longitude Leg Dist Tot Dist Heading (true) Name
O PAUN APT - 0 ft / 0 m 63.88659˚ -160.79693˚ - 0 nm - Unalakleet
JNR NDB - 400 ft / 122 m 63.90772˚ -160.81192˚ 1 nm 1 nm 343° / 343° NORTH RIVER NDB
DEXHU FIX B3 (AWY-LO) 14,700 ft / 4,481 m 64.49534˚ -161.73577˚ 42 nm 44 nm 326° / 325° -
OAY NDB B3 (AWY-LO) 18,000 ft / 5,486 m 64.69553˚ -162.06372˚ 14 nm 58 nm 325° / 325° NORTON BAY NDB
HHM NDB B3 (AWY-LO) 14,600 ft / 4,450 m 66.90128˚ -162.56439˚ 133 nm 191 nm 355° / 354° HOTHAM NDB
O PADG APT - 0 ft / 0 m 68.03210˚ -162.89918˚ 68 nm 260 nm 354° / 353° RED DOG

Altitude Profile

Advertisement - Login to hide

Weather


0- 5 10 15 20 25 30 35+ Temperature / ° C

Clouds and Precipitation
Forecast for 2017-12-18 00:00 UTC. Updated 26 minutes ago

Ground ~20,000 ft ~40,000 ft Winds

PAUN

Details ICAO PAUN (UNK)
Name Unalakleet
Region USA (Alaska)
Timezone America/Anchorage (UTC-9.0)
Stats Elevation 68 ft / 21 m (AMSL)
Location 63.886590° -160.796931°
Runways 2
Magnetic Variation 12.174° E

METAR

PAUN 171935Z AUTO 25007KT 4SM -SN BR OVC006 M02/M03 A2963 RMK AO2 CIG 004V010 P0000 FZRANO

Decode

TAF

PAUN 171831Z 1719/1818 27005KT 1SM -SN BR BKN008 OVC025 FM180200 24006KT 6SM -SN BR SCT015 OVC025 FM180800 20010KT P6SM SCT025 BKN040

Decode

Departure Runways

ID Width Length Bearing (true) Bearing (mag) Surface Threshold Offset Overrun Length
15 151 ft / 46 m 5,990 ft / 1,826 m 164.15° 151.98° Asphalt 0 ft / 0 m 499 ft / 152 m
26 79 ft / 24 m 1,993 ft / 608 m 278.43° 266.26° Asphalt 0 ft / 0 m 0 ft / 0 m
33 151 ft / 46 m 5,990 ft / 1,826 m 344.16° 331.99° Asphalt 0 ft / 0 m 0 ft / 0 m
8 79 ft / 24 m 1,993 ft / 608 m 98.42° 86.25° Asphalt 0 ft / 0 m 0 ft / 0 m

PADG

Details ICAO PADG
Name RED DOG
Region USA (Alaska)
Timezone America/Nome (UTC-9.0)
Stats Elevation 974 ft / 297 m (AMSL)
Location 68.032101° -162.899183°
Runways 1
Magnetic Variation 11.432° E

METAR

PADG 171855Z 04007KT 7SM FEW050 M16/M20 A2950

Decode

TAF

Not found

Destination Runways

ID Width Length Bearing (true) Bearing (mag) Surface Threshold Offset Overrun Length
02 100 ft / 30 m 5,735 ft / 1,748 m 41.03° 29.60° Asphalt 300 ft / 91 m 0 ft / 0 m
20 100 ft / 30 m 5,735 ft / 1,748 m 221.06° 209.63° Asphalt 300 ft / 91 m 0 ft / 0 m